Time;durP1;ratioP1;P1;durP2;ratioP2;P2;SDS_P1;SDS_P2;PMS_P1;PMS_P2;Temp;Humidity;BMP_temperature;BMP_pressure;BME280_temperature;BME280_humidity;BME280_pressure;Samples;Min_cycle;Max_cycle;Signal;HPM_P1;HPM_P2
2023/07/30 00:01:09;;;;;;;;;;;;;;;;;;6275203;28;19920;-65
2023/07/30 00:04:15;;;;;;;;;;;;;;;;;;6274017;28;20326;-63
2023/07/30 00:07:15;;;;;;;;;;;;;;;;;;6271881;28;20010;-66
2023/07/30 00:10:16;;;;;;;;;;;;;;;;;;6271892;28;20102;-66
2023/07/30 00:13:17;;;;;;;;;;;;;;;;;;6270953;28;20346;-65
2023/07/30 00:16:17;;;;;;;;;;;;;;;;;;6285938;28;19932;-66
2023/07/30 00:19:18;;;;;;;;;;;;;;;;;;6269826;28;20285;-65
2023/07/30 00:22:18;;;;;;;;;;;;;;;;;;6269891;28;19920;-67
2023/07/30 00:25:19;;;;;;;;;;;;;;;;;;6270654;28;19920;-66
2023/07/30 00:28:19;;;;;;;;;;;;;;;;;;6270366;28;19950;-66
2023/07/30 00:31:20;;;;;;;;;;;;;;;;;;6265851;28;19967;-66
2023/07/30 00:34:20;;;;;;;;;;;;;;;;;;6270054;28;19925;-66
2023/07/30 00:37:21;;;;;;;;;;;;;;;;;;6270401;28;19991;-65
2023/07/30 00:40:21;;;;;;;;;;;;;;;;;;6267721;28;19925;-64
2023/07/30 00:43:22;;;;;;;;;;;;;;;;;;6269781;28;20263;-64
2023/07/30 00:46:22;;;;;;;;;;;;;;;;;;6267694;28;19931;-65
2023/07/30 00:49:23;;;;;;;;;;;;;;;;;;6269370;28;19935;-65
2023/07/30 00:52:25;;;;;;;;;;;;;;;;;;6269433;28;19921;-67
2023/07/30 00:55:25;;;;;;;;;;;;;;;;;;6266515;28;20525;-67
2023/07/30 00:58:26;;;;;;;;;;;;;;;;;;6267776;28;20015;-65
2023/07/30 01:01:26;;;;;;;;;;;;;;;;;;6268146;28;19924;-65
2023/07/30 01:04:27;;;;;;;;;;;;;;;;;;6269807;28;20307;-66
2023/07/30 01:07:27;;;;;;;;;;;;;;;;;;6265414;28;19931;-65
2023/07/30 01:10:30;;;;;;;;;;;;;;;;;;6266593;28;19921;-66
2023/07/30 01:13:32;;;;;;;;;;;;;;;;;;6270195;28;19928;-66
2023/07/30 01:16:32;;;;;;;;;;;;;;;;;;6267148;28;19966;-67
2023/07/30 01:19:33;;;;;;;;;;;;;;;;;;6268839;28;19935;-64
2023/07/30 01:22:33;;;;;;;;;;;;;;;;;;6269452;28;19966;-66
2023/07/30 01:25:35;;;;;;;;;;;;;;;;;;6269019;28;19920;-67
2023/07/30 01:28:38;;;;;;;;;;;;;;;;;;6267988;28;19948;-66
2023/07/30 01:31:40;;;;;;;;;;;;;;;;;;6270645;28;20034;-66
2023/07/30 01:34:41;;;;;;;;;;;;;;;;;;6284435;28;20018;-66
2023/07/30 01:37:42;;;;;;;;;;;;;;;;;;6271472;28;19974;-67
2023/07/30 01:40:43;;;;;;;;;;;;;;;;;;6270130;28;19924;-66
2023/07/30 01:43:43;;;;;;;;;;;;;;;;;;6268364;28;19928;-67
2023/07/30 01:46:44;;;;;;;;;;;;;;;;;;6269099;28;19930;-65
2023/07/30 01:49:44;;;;;;;;;;;;;;;;;;6269785;28;19927;-66
2023/07/30 01:52:45;;;;;;;;;;;;;;;;;;6267206;28;19925;-66
2023/07/30 01:55:46;;;;;;;;;;;;;;;;;;6270156;28;20383;-65
2023/07/30 01:58:46;;;;;;;;;;;;;;;;;;6270796;28;20372;-64
2023/07/30 02:01:47;;;;;;;;;;;;;;;;;;6265012;28;19932;-66
2023/07/30 02:04:47;;;;;;;;;;;;;;;;;;6269197;28;19950;-65
2023/07/30 02:07:48;;;;;;;;;;;;;;;;;;6271850;28;19924;-66
2023/07/30 02:10:58;;;;;;;;;;;;;;;;;;6276077;28;19924;-66
2023/07/30 02:13:58;;;;;;;;;;;;;;;;;;6274061;28;19954;-67
2023/07/30 02:16:59;;;;;;;;;;;;;;;;;;6271938;28;19931;-66
2023/07/30 02:19:59;;;;;;;;;;;;;;;;;;6276094;28;19931;-66
2023/07/30 02:23:00;;;;;;;;;;;;;;;;;;6278379;28;19925;-66
2023/07/30 02:26:00;;;;;;;;;;;;;;;;;;6270643;28;20399;-67
2023/07/30 02:29:01;;;;;;;;;;;;;;;;;;6273041;28;19928;-66
2023/07/30 02:32:01;;;;;;;;;;;;;;;;;;6275020;28;19920;-66
2023/07/30 02:35:02;;;;;;;;;;;;;;;;;;6273058;28;19928;-62
2023/07/30 02:38:03;;;;;;;;;;;;;;;;;;6272560;28;19921;-67
2023/07/30 02:41:03;;;;;;;;;;;;;;;;;;6271375;28;19920;-67
2023/07/30 02:44:04;;;;;;;;;;;;;;;;;;6275058;28;19924;-64
2023/07/30 02:47:04;;;;;;;;;;;;;;;;;;6272511;28;19925;-67
2023/07/30 02:50:08;;;;;;;;;;;;;;;;;;6274686;28;20319;-64
2023/07/30 02:53:09;;;;;;;;;;;;;;;;;;6272447;28;20480;-65
2023/07/30 02:56:09;;;;;;;;;;;;;;;;;;6272375;28;19931;-67
2023/07/30 02:59:10;;;;;;;;;;;;;;;;;;6273922;28;19924;-65
2023/07/30 03:02:10;;;;;;;;;;;;;;;;;;6274837;28;20307;-66
2023/07/30 03:05:11;;;;;;;;;;;;;;;;;;6272032;28;20295;-67
2023/07/30 03:08:11;;;;;;;;;;;;;;;;;;6271859;28;20758;-66
2023/07/30 03:11:13;;;;;;;;;;;;;;;;;;6272116;28;19925;-66
2023/07/30 03:14:13;;;;;;;;;;;;;;;;;;6272429;28;19986;-65
2023/07/30 03:17:14;;;;;;;;;;;;;;;;;;6270658;28;19924;-65
2023/07/30 03:20:14;;;;;;;;;;;;;;;;;;6275029;28;19924;-65
2023/07/30 03:23:15;;;;;;;;;;;;;;;;;;6272597;28;20028;-66
2023/07/30 03:26:15;;;;;;;;;;;;;;;;;;6268282;28;19935;-66
2023/07/30 03:29:16;;;;;;;;;;;;;;;;;;6271671;28;19931;-65
2023/07/30 03:32:16;;;;;;;;;;;;;;;;;;6273156;28;20371;-64
2023/07/30 03:35:17;;;;;;;;;;;;;;;;;;6270398;28;19931;-65
2023/07/30 03:38:17;;;;;;;;;;;;;;;;;;6273383;28;19931;-63
2023/07/30 03:41:18;;;;;;;;;;;;;;;;;;6270925;28;20409;-62
2023/07/30 03:44:18;;;;;;;;;;;;;;;;;;6269019;28;19920;-65
2023/07/30 03:47:19;;;;;;;;;;;;;;;;;;6269668;28;19920;-62
2023/07/30 03:50:19;;;;;;;;;;;;;;;;;;6273334;28;20271;-63
2023/07/30 03:53:20;;;;;;;;;;;;;;;;;;6272356;28;19935;-63
2023/07/30 03:56:20;;;;;;;;;;;;;;;;;;6270485;28;20379;-63
2023/07/30 03:59:21;;;;;;;;;;;;;;;;;;6269745;28;19924;-62
2023/07/30 04:02:22;;;;;;;;;;;;;;;;;;6268705;28;20460;-64
2023/07/30 04:05:22;;;;;;;;;;;;;;;;;;6277635;28;20346;-65
2023/07/30 04:08:23;;;;;;;;;;;;;;;;;;6272340;28;19924;-65
2023/07/30 04:11:23;;;;;;;;;;;;;;;;;;6268990;28;19956;-64
2023/07/30 04:14:24;;;;;;;;;;;;;;;;;;6272475;28;19929;-65
2023/07/30 04:17:24;;;;;;;;;;;;;;;;;;6267743;28;19921;-64
2023/07/30 04:20:25;;;;;;;;;;;;;;;;;;6267830;28;20330;-64
2023/07/30 04:23:26;;;;;;;;;;;;;;;;;;6271808;28;19925;-62
2023/07/30 04:26:26;;;;;;;;;;;;;;;;;;6265188;28;19924;-61
2023/07/30 04:29:27;;;;;;;;;;;;;;;;;;6267608;28;20332;-63
2023/07/30 04:32:27;;;;;;;;;;;;;;;;;;6270881;28;19945;-65
2023/07/30 04:35:28;;;;;;;;;;;;;;;;;;6268630;28;19932;-61
2023/07/30 04:38:29;;;;;;;;;;;;;;;;;;6267150;28;19986;-65
2023/07/30 04:41:30;;;;;;;;;;;;;;;;;;6269050;28;19924;-63
2023/07/30 04:44:30;;;;;;;;;;;;;;;;;;6277211;28;20295;-65
2023/07/30 04:47:31;;;;;;;;;;;;;;;;;;6281280;28;20023;-65
2023/07/30 04:50:31;;;;;;;;;;;;;;;;;;6291168;28;19924;-62
2023/07/30 04:53:32;;;;;;;;;;;;;;;;;;6288860;28;20286;-59
2023/07/30 04:56:32;;;;;;;;;;;;;;;;;;6285315;28;20295;-68
2023/07/30 04:59:36;;;;;;;;;;;;;;;;;;6291576;28;19943;-66
2023/07/30 05:02:36;;;;;;;;;;;;;;;;;;6276295;28;19931;-63
2023/07/30 05:05:37;;;;;;;;;;;;;;;;;;6289576;28;19920;-63
2023/07/30 05:08:37;;;;;;;;;;;;;;;;;;6290575;28;19920;-63
2023/07/30 05:11:41;;;;;;;;;;;;;;;;;;6291020;28;19938;-65
2023/07/30 05:14:41;;;;;;;;;;;;;;;;;;6290760;28;19925;-65
2023/07/30 05:17:42;;;;;;;;;;;;;;;;;;6290695;28;20164;-64
2023/07/30 05:20:42;;;;;;;;;;;;;;;;;;6291016;28;19986;-65
2023/07/30 05:23:43;;;;;;;;;;;;;;;;;;6291617;28;19925;-65
2023/07/30 05:26:43;;;;;;;;;;;;;;;;;;6289451;28;19925;-64
2023/07/30 05:29:44;;;;;;;;;;;;;;;;;;6289542;28;19924;-61
2023/07/30 05:32:44;;;;;;;;;;;;;;;;;;6287293;28;19932;-65
2023/07/30 05:35:45;;;;;;;;;;;;;;;;;;6289838;28;19974;-65
2023/07/30 05:38:46;;;;;;;;;;;;;;;;;;6291337;28;19969;-63
2023/07/30 05:41:46;;;;;;;;;;;;;;;;;;6286598;28;19928;-64
2023/07/30 05:44:47;;;;;;;;;;;;;;;;;;6295103;28;19924;-65
2023/07/30 05:47:47;;;;;;;;;;;;;;;;;;6292970;28;19964;-66
2023/07/30 05:50:48;;;;;;;;;;;;;;;;;;6293085;28;19931;-62
2023/07/30 05:53:48;;;;;;;;;;;;;;;;;;6291024;28;19924;-64
2023/07/30 05:56:48;;;;;;;;;;;;;;;;;;6287596;28;19924;-61
2023/07/30 05:59:49;;;;;;;;;;;;;;;;;;6292756;28;19924;-63
2023/07/30 06:02:50;;;;;;;;;;;;;;;;;;6294424;28;19927;-61
2023/07/30 06:05:50;;;;;;;;;;;;;;;;;;6287983;28;20371;-64
2023/07/30 06:08:51;;;;;;;;;;;;;;;;;;6284236;28;20007;-63
2023/07/30 06:11:51;;;;;;;;;;;;;;;;;;6281538;28;19920;-62
2023/07/30 06:14:51;;;;;;;;;;;;;;;;;;6294619;28;19920;-65
2023/07/30 06:17:52;;;;;;;;;;;;;;;;;;6294421;28;20261;-63
2023/07/30 06:20:52;;;;;;;;;;;;;;;;;;6294506;28;19924;-62
2023/07/30 06:23:53;;;;;;;;;;;;;;;;;;6294468;28;19931;-67
2023/07/30 06:26:53;;;;;;;;;;;;;;;;;;6293725;28;19931;-65
2023/07/30 06:29:54;;;;;;;;;;;;;;;;;;6295157;28;19921;-66
2023/07/30 06:32:55;;;;;;;;;;;;;;;;;;6294822;28;19999;-64
2023/07/30 06:35:55;;;;;;;;;;;;;;;;;;6293069;28;19943;-65
2023/07/30 06:38:56;;;;;;;;;;;;;;;;;;6281686;28;20411;-63
2023/07/30 06:41:56;;;;;;;;;;;;;;;;;;6286933;28;19921;-63
2023/07/30 06:44:57;;;;;;;;;;;;;;;;;;6285375;28;20418;-64
2023/07/30 06:47:57;;;;;;;;;;;;;;;;;;6292030;28;20617;-63
2023/07/30 06:50:58;;;;;;;;;;;;;;;;;;6279960;28;19951;-65
2023/07/30 06:53:58;;;;;;;;;;;;;;;;;;6280443;28;19925;-63
2023/07/30 06:56:59;;;;;;;;;;;;;;;;;;6284864;28;19928;-63
2023/07/30 07:00:00;;;;;;;;;;;;;;;;;;6280125;28;19927;-64
2023/07/30 07:03:00;;;;;;;;;;;;;;;;;;6278315;28;19959;-66
2023/07/30 07:06:01;;;;;;;;;;;;;;;;;;6274829;28;19920;-63
2023/07/30 07:09:01;;;;;;;;;;;;;;;;;;6276545;28;20390;-63
2023/07/30 07:12:03;;;;;;;;;;;;;;;;;;6279019;28;19921;-63
2023/07/30 07:15:03;;;;;;;;;;;;;;;;;;6267359;28;20380;-64
2023/07/30 07:18:04;;;;;;;;;;;;;;;;;;6284975;28;19921;-64
2023/07/30 07:21:04;;;;;;;;;;;;;;;;;;6284201;28;19920;-63
2023/07/30 07:24:05;;;;;;;;;;;;;;;;;;6288232;28;19920;-64
2023/07/30 07:27:06;;;;;;;;;;;;;;;;;;6292725;28;19930;-62
2023/07/30 07:30:07;;;;;;;;;;;;;;;;;;6293641;28;21134;-64
2023/07/30 07:33:11;;;;;;;;;;;;;;;;;;6293183;28;19974;-63
2023/07/30 07:36:14;;;;;;;;;;;;;;;;;;6291831;28;19927;-64
2023/07/30 07:39:14;;;;;;;;;;;;;;;;;;6293102;28;19924;-63
2023/07/30 07:42:15;;;;;;;;;;;;;;;;;;6282118;28;20385;-64
2023/07/30 07:45:15;;;;;;;;;;;;;;;;;;6291883;28;19935;-64
2023/07/30 07:48:15;;;;;;;;;;;;;;;;;;6293022;28;19935;-64
2023/07/30 07:51:16;;;;;;;;;;;;;;;;;;6281055;28;20360;-64
2023/07/30 07:54:16;;;;;;;;;;;;;;;;;;6291460;28;20389;-63
2023/07/30 07:57:17;;;;;;;;;;;;;;;;;;6291949;28;19920;-63
2023/07/30 08:00:18;;;;;;;;;;;;;;;;;;6292796;28;20371;-65
2023/07/30 08:03:19;;;;;;;;;;;;;;;;;;6292513;28;19924;-64
2023/07/30 08:06:19;;;;;;;;;;;;;;;;;;6291181;28;20286;-63
2023/07/30 08:09:20;;;;;;;;;;;;;;;;;;6290934;28;19921;-63
2023/07/30 08:12:20;;;;;;;;;;;;;;;;;;6275060;28;20333;-63
2023/07/30 08:15:21;;;;;;;;;;;;;;;;;;6290991;28;19924;-62
2023/07/30 08:18:21;;;;;;;;;;;;;;;;;;6286740;28;20291;-63
2023/07/30 08:21:22;;;;;;;;;;;;;;;;;;6289730;28;19925;-64
2023/07/30 08:24:22;;;;;;;;;;;;;;;;;;6280946;28;19977;-62
2023/07/30 08:27:23;;;;;;;;;;;;;;;;;;6290875;28;19935;-63
2023/07/30 08:30:24;;;;;;;;;;;;;;;;;;6292047;28;19925;-63
2023/07/30 08:33:26;;;;;;;;;;;;;;;;;;6290062;28;19930;-62
2023/07/30 08:36:26;;;;;;;;;;;;;;;;;;6290635;28;19931;-62
2023/07/30 08:39:27;;;;;;;;;;;;;;;;;;6292245;28;20375;-65
2023/07/30 08:42:27;;;;;;;;;;;;;;;;;;6291468;28;20416;-61
2023/07/30 08:45:28;;;;;;;;;;;;;;;;;;6272249;28;19931;-64
2023/07/30 08:48:29;;;;;;;;;;;;;;;;;;6278958;28;19931;-64
2023/07/30 08:51:31;;;;;;;;;;;;;;;;;;6291714;28;19924;-64
2023/07/30 08:54:31;;;;;;;;;;;;;;;;;;6290692;28;20290;-63
2023/07/30 08:57:32;;;;;;;;;;;;;;;;;;6290876;28;19924;-63
2023/07/30 09:00:38;;;;;;;;;;;;;;;;;;6291860;28;19924;-65
2023/07/30 09:03:40;;;;;;;;;;;;;;;;;;6281094;28;19924;-69
2023/07/30 09:06:40;;;;;;;;;;;;;;;;;;6283784;28;20020;-67
2023/07/30 09:09:42;;;;;;;;;;;;;;;;;;6288577;28;19930;-65
2023/07/30 09:12:43;;;;;;;;;;;;;;;;;;6285236;28;20334;-64
2023/07/30 09:15:47;;;;;;;;;;;;;;;;;;6280271;28;19927;-67
2023/07/30 09:18:49;;;;;;;;;;;;;;;;;;6293146;28;19921;-65
2023/07/30 09:21:49;;;;;;;;;;;;;;;;;;6282863;28;19928;-64
2023/07/30 09:24:50;;;;;;;;;;;;;;;;;;6292946;28;20291;-61
2023/07/30 09:27:51;;;;;;;;;;;;;;;;;;6284165;28;19920;-64
2023/07/30 09:30:59;;;;;;;;;;;;;;;;;;6277146;28;19973;-65
2023/07/30 09:33:59;;;;;;;;;;;;;;;;;;6283579;28;19960;-65
2023/07/30 09:37:02;;;;;;;;;;;;;;;;;;6292348;28;19942;-63
2023/07/30 09:40:03;;;;;;;;;;;;;;;;;;6286721;28;19920;-65
2023/07/30 09:43:04;;;;;;;;;;;;;;;;;;6295815;28;19920;-64
2023/07/30 09:46:06;;;;;;;;;;;;;;;;;;6294756;28;19963;-63
2023/07/30 09:49:07;;;;;;;;;;;;;;;;;;6285016;28;19920;-64
2023/07/30 09:52:07;;;;;;;;;;;;;;;;;;6283091;28;19924;-62
2023/07/30 09:55:08;;;;;;;;;;;;;;;;;;6295395;28;19924;-63
2023/07/30 09:58:11;;;;;;;;;;;;;;;;;;6290432;28;20305;-62
2023/07/30 10:01:11;;;;;;;;;;;;;;;;;;6279068;28;19925;-61
2023/07/30 10:04:12;;;;;;;;;;;;;;;;;;6282659;28;19928;-62
2023/07/30 10:07:16;;;;;;;;;;;;;;;;;;6277820;28;20474;-62
2023/07/30 10:10:17;;;;;;;;;;;;;;;;;;6295990;28;19937;-62
2023/07/30 10:13:18;;;;;;;;;;;;;;;;;;6288334;28;20211;-64
2023/07/30 10:16:18;;;;;;;;;;;;;;;;;;6293375;28;19927;-63
2023/07/30 10:19:23;;;;;;;;;;;;;;;;;;6295147;28;19920;-62
2023/07/30 10:22:25;;;;;;;;;;;;;;;;;;6295198;28;20337;-61
2023/07/30 10:25:47;;;;;;;;;;;;;;;;;;6294739;28;20011;-62
2023/07/30 10:28:47;;;;;;;;;;;;;;;;;;6279428;28;19927;-66
2023/07/30 10:31:57;;;;;;;;;;;;;;;;;;6294375;28;19921;-64
2023/07/30 10:34:57;;;;;;;;;;;;;;;;;;6294420;28;19924;-62
2023/07/30 10:37:58;;;;;;;;;;;;;;;;;;6293982;28;19924;-69
2023/07/30 10:41:16;;;;;;;;;;;;;;;;;;6294340;28;19969;-62
2023/07/30 10:44:23;;;;;;;;;;;;;;;;;;6294894;28;20452;-63
2023/07/30 10:47:26;;;;;;;;;;;;;;;;;;6294698;28;19931;-64
2023/07/30 10:50:27;;;;;;;;;;;;;;;;;;6293263;28;20743;-63
2023/07/30 10:53:27;;;;;;;;;;;;;;;;;;6291947;28;19928;-63
2023/07/30 10:56:28;;;;;;;;;;;;;;;;;;6284633;28;19921;-63
2023/07/30 10:59:36;;;;;;;;;;;;;;;;;;6293269;28;19920;-62
2023/07/30 11:02:36;;;;;;;;;;;;;;;;;;6281176;28;20284;-62
2023/07/30 11:05:40;;;;;;;;;;;;;;;;;;6293970;28;19924;-62
2023/07/30 11:08:41;;;;;;;;;;;;;;;;;;6293828;28;20371;-63
2023/07/30 11:11:42;;;;;;;;;;;;;;;;;;6292603;28;19924;-63
2023/07/30 11:14:43;;;;;;;;;;;;;;;;;;6294051;28;19924;-61
2023/07/30 11:17:45;;;;;;;;;;;;;;;;;;6293960;28;19931;-63
2023/07/30 11:20:46;;;;;;;;;;;;;;;;;;6291772;28;19924;-63
2023/07/30 11:23:46;;;;;;;;;;;;;;;;;;6294053;28;20371;-64
2023/07/30 11:26:56;;;;;;;;;;;;;;;;;;6292468;28;20295;-63
2023/07/30 11:29:57;;;;;;;;;;;;;;;;;;6278833;28;20016;-63
2023/07/30 11:32:57;;;;;;;;;;;;;;;;;;6289733;28;20007;-62
2023/07/30 11:35:59;;;;;;;;;;;;;;;;;;6293565;28;19931;-63
2023/07/30 11:39:00;;;;;;;;;;;;;;;;;;6293358;27;19927;-63
2023/07/30 11:42:01;;;;;;;;;;;;;;;;;;6291173;28;19929;-64
2023/07/30 11:45:21;;;;;;;;;;;;;;;;;;6293699;28;19956;-63
2023/07/30 11:48:23;;;;;;;;;;;;;;;;;;6292769;28;19920;-63
2023/07/30 11:51:25;;;;;;;;;;;;;;;;;;6282560;28;19924;-62
2023/07/30 11:54:25;;;;;;;;;;;;;;;;;;6278455;28;19947;-64
2023/07/30 11:57:33;;;;;;;;;;;;;;;;;;6293355;28;19924;-64
2023/07/30 12:00:33;;;;;;;;;;;;;;;;;;6292758;28;19925;-63
2023/07/30 12:03:34;;;;;;;;;;;;;;;;;;6290314;28;20621;-62
2023/07/30 12:06:40;;;;;;;;;;;;;;;;;;6293046;28;19920;-63
2023/07/30 12:09:40;;;;;;;;;;;;;;;;;;6289122;28;19924;-63
2023/07/30 12:12:45;;;;;;;;;;;;;;;;;;6278414;28;19948;-64
2023/07/30 12:15:52;;;;;;;;;;;;;;;;;;6291632;28;19924;-63
2023/07/30 12:18:53;;;;;;;;;;;;;;;;;;6293797;28;19947;-63
2023/07/30 12:21:53;;;;;;;;;;;;;;;;;;6270837;28;19924;-63
2023/07/30 12:24:53;;;;;;;;;;;;;;;;;;6287890;28;19924;-63
2023/07/30 12:27:54;;;;;;;;;;;;;;;;;;6284733;28;19924;-63
2023/07/30 12:30:55;;;;;;;;;;;;;;;;;;6276864;28;19956;-63
2023/07/30 12:33:55;;;;;;;;;;;;;;;;;;6280411;28;19920;-63
2023/07/30 12:36:57;;;;;;;;;;;;;;;;;;6281362;28;19931;-63
2023/07/30 12:39:58;;;;;;;;;;;;;;;;;;6282924;28;20320;-63
2023/07/30 12:42:58;;;;;;;;;;;;;;;;;;6270200;28;19931;-63
2023/07/30 12:45:59;;;;;;;;;;;;;;;;;;6271245;28;20096;-63
2023/07/30 12:49:04;;;;;;;;;;;;;;;;;;6271766;28;20649;-63
2023/07/30 12:52:05;;;;;;;;;;;;;;;;;;6265585;28;19924;-63
2023/07/30 12:55:06;;;;;;;;;;;;;;;;;;6271607;28;20402;-62
2023/07/30 12:58:06;;;;;;;;;;;;;;;;;;6269367;28;20285;-63
2023/07/30 13:01:07;;;;;;;;;;;;;;;;;;6267802;28;19977;-63
2023/07/30 13:04:07;;;;;;;;;;;;;;;;;;6270150;28;20367;-63
2023/07/30 13:07:08;;;;;;;;;;;;;;;;;;6271856;28;19928;-62
2023/07/30 13:10:09;;;;;;;;;;;;;;;;;;6271578;28;19982;-63
2023/07/30 13:13:09;;;;;;;;;;;;;;;;;;6267048;28;19935;-63
2023/07/30 13:16:10;;;;;;;;;;;;;;;;;;6271497;28;19936;-62
2023/07/30 13:19:10;;;;;;;;;;;;;;;;;;6270987;28;20417;-62
2023/07/30 13:22:11;;;;;;;;;;;;;;;;;;6269815;28;20038;-62
2023/07/30 13:25:11;;;;;;;;;;;;;;;;;;6272820;28;20383;-62
2023/07/30 13:28:12;;;;;;;;;;;;;;;;;;6270011;28;19951;-63
2023/07/30 13:31:12;;;;;;;;;;;;;;;;;;6270239;28;19924;-63
2023/07/30 13:34:13;;;;;;;;;;;;;;;;;;6269202;28;19936;-62
2023/07/30 13:37:13;;;;;;;;;;;;;;;;;;6271517;28;19928;-62
2023/07/30 13:40:14;;;;;;;;;;;;;;;;;;6270687;28;20041;-62
2023/07/30 13:43:14;;;;;;;;;;;;;;;;;;6268744;28;20489;-63
2023/07/30 13:46:15;;;;;;;;;;;;;;;;;;6271045;28;19928;-63
2023/07/30 13:49:16;;;;;;;;;;;;;;;;;;6271427;28;20302;-63
2023/07/30 13:52:16;;;;;;;;;;;;;;;;;;6271476;28;19966;-63
2023/07/30 13:55:17;;;;;;;;;;;;;;;;;;6272786;28;19928;-63
2023/07/30 13:58:17;;;;;;;;;;;;;;;;;;6270950;28;19937;-62
2023/07/30 14:01:18;;;;;;;;;;;;;;;;;;6270660;28;20360;-62
2023/07/30 14:04:18;;;;;;;;;;;;;;;;;;6273888;28;20371;-63
2023/07/30 14:07:19;;;;;;;;;;;;;;;;;;6274990;28;21090;-62
2023/07/30 14:10:19;;;;;;;;;;;;;;;;;;6274099;28;20796;-62
2023/07/30 14:13:20;;;;;;;;;;;;;;;;;;6271641;28;19929;-61
2023/07/30 14:16:20;;;;;;;;;;;;;;;;;;6276707;28;19981;-62
2023/07/30 14:19:21;;;;;;;;;;;;;;;;;;6274883;28;19953;-63
2023/07/30 14:22:21;;;;;;;;;;;;;;;;;;6271815;28;19924;-62
2023/07/30 14:25:22;;;;;;;;;;;;;;;;;;6273381;28;20467;-61
2023/07/30 14:28:22;;;;;;;;;;;;;;;;;;6273350;28;20367;-62
2023/07/30 14:31:24;;;;;;;;;;;;;;;;;;6272964;28;20025;-62
2023/07/30 14:34:25;;;;;;;;;;;;;;;;;;6272838;28;20442;-63
2023/07/30 14:37:25;;;;;;;;;;;;;;;;;;6273766;28;19921;-62
2023/07/30 14:40:26;;;;;;;;;;;;;;;;;;6275355;28;20417;-63
2023/07/30 14:43:26;;;;;;;;;;;;;;;;;;6272438;28;20319;-63
2023/07/30 14:46:28;;;;;;;;;;;;;;;;;;6274548;28;20378;-63
2023/07/30 14:49:28;;;;;;;;;;;;;;;;;;6270956;28;19924;-63
2023/07/30 14:52:29;;;;;;;;;;;;;;;;;;6272099;28;20387;-63
2023/07/30 14:55:30;;;;;;;;;;;;;;;;;;6277039;28;20283;-63
2023/07/30 14:58:30;;;;;;;;;;;;;;;;;;6275649;28;19927;-63
2023/07/30 15:01:31;;;;;;;;;;;;;;;;;;6269320;28;19924;-61
2023/07/30 15:04:31;;;;;;;;;;;;;;;;;;6274819;28;19920;-63
2023/07/30 15:07:32;;;;;;;;;;;;;;;;;;6275435;28;20371;-63
2023/07/30 15:10:32;;;;;;;;;;;;;;;;;;6274717;28;20277;-62
2023/07/30 15:13:33;;;;;;;;;;;;;;;;;;6269875;28;20329;-63
2023/07/30 15:16:33;;;;;;;;;;;;;;;;;;6274072;28;19990;-63
2023/07/30 15:19:34;;;;;;;;;;;;;;;;;;6274594;28;19951;-62
2023/07/30 15:22:34;;;;;;;;;;;;;;;;;;6269699;28;19928;-63
2023/07/30 15:25:35;;;;;;;;;;;;;;;;;;6271493;28;19927;-63
2023/07/30 15:28:35;;;;;;;;;;;;;;;;;;6273049;28;19966;-61
2023/07/30 15:31:36;;;;;;;;;;;;;;;;;;6270701;28;19928;-63
2023/07/30 15:34:36;;;;;;;;;;;;;;;;;;6273449;28;19955;-63
2023/07/30 15:37:37;;;;;;;;;;;;;;;;;;6274348;28;19920;-63
2023/07/30 15:40:38;;;;;;;;;;;;;;;;;;6273066;28;20393;-62
2023/07/30 15:43:39;;;;;;;;;;;;;;;;;;6272827;28;19924;-63
2023/07/30 15:46:39;;;;;;;;;;;;;;;;;;6274477;28;19934;-63
2023/07/30 15:49:40;;;;;;;;;;;;;;;;;;6275427;28;20347;-62
2023/07/30 15:52:40;;;;;;;;;;;;;;;;;;6269672;28;19935;-63
2023/07/30 15:55:41;;;;;;;;;;;;;;;;;;6273995;28;19929;-62
2023/07/30 15:58:41;;;;;;;;;;;;;;;;;;6274160;28;19936;-62
2023/07/30 16:01:42;;;;;;;;;;;;;;;;;;6271701;28;19928;-62
2023/07/30 16:04:42;;;;;;;;;;;;;;;;;;6271427;28;20350;-62
2023/07/30 16:07:43;;;;;;;;;;;;;;;;;;6271889;28;19924;-63
2023/07/30 16:10:44;;;;;;;;;;;;;;;;;;6273275;28;19930;-62
2023/07/30 16:13:44;;;;;;;;;;;;;;;;;;6269019;28;20528;-62
2023/07/30 16:16:45;;;;;;;;;;;;;;;;;;6271817;28;20308;-63
2023/07/30 16:19:45;;;;;;;;;;;;;;;;;;6269035;28;19931;-63
2023/07/30 16:22:46;;;;;;;;;;;;;;;;;;6267713;28;19932;-61
2023/07/30 16:25:46;;;;;;;;;;;;;;;;;;6281037;28;20138;-62
2023/07/30 16:28:47;;;;;;;;;;;;;;;;;;6283031;28;19954;-61
2023/07/30 16:31:47;;;;;;;;;;;;;;;;;;6280620;28;20005;-65
2023/07/30 16:34:48;;;;;;;;;;;;;;;;;;6281893;28;19969;-67
2023/07/30 16:37:50;;;;;;;;;;;;;;;;;;6281724;28;19974;-61
2023/07/30 16:40:51;;;;;;;;;;;;;;;;;;6280913;28;19928;-64
2023/07/30 16:43:51;;;;;;;;;;;;;;;;;;6275024;28;20010;-63
2023/07/30 16:46:52;;;;;;;;;;;;;;;;;;6287319;28;19973;-62
2023/07/30 16:49:52;;;;;;;;;;;;;;;;;;6293855;28;20599;-64
2023/07/30 16:52:53;;;;;;;;;;;;;;;;;;6286988;28;19967;-65
2023/07/30 16:55:54;;;;;;;;;;;;;;;;;;6292524;28;19970;-64
2023/07/30 16:58:54;;;;;;;;;;;;;;;;;;6295499;28;19924;-62
2023/07/30 17:01:55;;;;;;;;;;;;;;;;;;6286009;28;19997;-61
2023/07/30 17:04:56;;;;;;;;;;;;;;;;;;6291274;28;20405;-61
2023/07/30 17:07:57;;;;;;;;;;;;;;;;;;6294887;28;19928;-60
2023/07/30 17:11:03;;;;;;;;;;;;;;;;;;6294968;28;19930;-64
2023/07/30 17:14:03;;;;;;;;;;;;;;;;;;6287795;28;19999;-63
2023/07/30 17:17:04;;;;;;;;;;;;;;;;;;6285459;28;20799;-62
2023/07/30 17:20:05;;;;;;;;;;;;;;;;;;6285245;28;19929;-62
2023/07/30 17:23:06;;;;;;;;;;;;;;;;;;6287634;28;19934;-62
2023/07/30 17:26:06;;;;;;;;;;;;;;;;;;6289499;28;20363;-61
2023/07/30 17:29:07;;;;;;;;;;;;;;;;;;6289759;28;19928;-61
2023/07/30 17:32:07;;;;;;;;;;;;;;;;;;6281894;28;19928;-62
2023/07/30 17:35:08;;;;;;;;;;;;;;;;;;6285534;28;19928;-63
2023/07/30 17:38:09;;;;;;;;;;;;;;;;;;6291240;28;19920;-65
2023/07/30 17:41:09;;;;;;;;;;;;;;;;;;6290748;28;19924;-65
2023/07/30 17:44:10;;;;;;;;;;;;;;;;;;6293832;28;19940;-66
2023/07/30 17:47:10;;;;;;;;;;;;;;;;;;6296276;28;19966;-65
2023/07/30 17:50:11;;;;;;;;;;;;;;;;;;6289347;28;19928;-64
2023/07/30 17:53:11;;;;;;;;;;;;;;;;;;6291353;28;19935;-62
2023/07/30 17:56:12;;;;;;;;;;;;;;;;;;6296610;28;19924;-63
2023/07/30 17:59:13;;;;;;;;;;;;;;;;;;6292139;28;19928;-63
2023/07/30 18:02:15;;;;;;;;;;;;;;;;;;6290518;28;20366;-63
2023/07/30 18:05:16;;;;;;;;;;;;;;;;;;6294262;28;19932;-63
2023/07/30 18:08:16;;;;;;;;;;;;;;;;;;6288253;28;19943;-64
2023/07/30 18:11:17;;;;;;;;;;;;;;;;;;6291960;28;19928;-61
2023/07/30 18:14:17;;;;;;;;;;;;;;;;;;6292048;28;19935;-62
2023/07/30 18:17:18;;;;;;;;;;;;;;;;;;6290992;28;19928;-63
2023/07/30 18:20:18;;;;;;;;;;;;;;;;;;6283479;28;19935;-62
2023/07/30 18:23:19;;;;;;;;;;;;;;;;;;6291346;28;19931;-61
2023/07/30 18:26:19;;;;;;;;;;;;;;;;;;6289187;28;19928;-63
2023/07/30 18:29:20;;;;;;;;;;;;;;;;;;6292689;28;20449;-61
2023/07/30 18:32:21;;;;;;;;;;;;;;;;;;6287926;28;20731;-61
2023/07/30 18:35:22;;;;;;;;;;;;;;;;;;6290025;28;19934;-60
2023/07/30 18:38:22;;;;;;;;;;;;;;;;;;6296283;28;19928;-63
2023/07/30 18:41:23;;;;;;;;;;;;;;;;;;6289577;28;20087;-64
2023/07/30 18:44:23;;;;;;;;;;;;;;;;;;6290090;28;19924;-60
2023/07/30 18:47:24;;;;;;;;;;;;;;;;;;6293878;28;20371;-59
2023/07/30 18:50:24;;;;;;;;;;;;;;;;;;6288222;28;20287;-61
2023/07/30 18:53:25;;;;;;;;;;;;;;;;;;6285796;28;19928;-61
2023/07/30 18:56:26;;;;;;;;;;;;;;;;;;6294461;28;19928;-60
2023/07/30 18:59:27;;;;;;;;;;;;;;;;;;6290976;28;19935;-60
2023/07/30 19:02:27;;;;;;;;;;;;;;;;;;6289756;28;19928;-60
2023/07/30 19:05:28;;;;;;;;;;;;;;;;;;6294301;28;19954;-60
2023/07/30 19:08:28;;;;;;;;;;;;;;;;;;6295332;28;19924;-60
2023/07/30 19:11:29;;;;;;;;;;;;;;;;;;6290207;28;20418;-60
2023/07/30 19:14:29;;;;;;;;;;;;;;;;;;6295362;28;19931;-59
2023/07/30 19:17:30;;;;;;;;;;;;;;;;;;6295285;28;19925;-60
2023/07/30 19:20:32;;;;;;;;;;;;;;;;;;6289991;28;20068;-60
2023/07/30 19:23:32;;;;;;;;;;;;;;;;;;6292883;28;19974;-60
2023/07/30 19:26:33;;;;;;;;;;;;;;;;;;6294846;28;19966;-62
2023/07/30 19:29:33;;;;;;;;;;;;;;;;;;6297475;28;20370;-63
2023/07/30 19:32:35;;;;;;;;;;;;;;;;;;6289708;28;19928;-60
2023/07/30 19:35:35;;;;;;;;;;;;;;;;;;6294228;28;19928;-62
2023/07/30 19:38:36;;;;;;;;;;;;;;;;;;6292541;28;20503;-63
2023/07/30 19:41:37;;;;;;;;;;;;;;;;;;6292030;28;19943;-65
2023/07/30 19:44:38;;;;;;;;;;;;;;;;;;6292581;28;19928;-63
2023/07/30 19:47:38;;;;;;;;;;;;;;;;;;6290457;28;20286;-63
2023/07/30 19:50:39;;;;;;;;;;;;;;;;;;6284450;28;19989;-64
2023/07/30 19:53:40;;;;;;;;;;;;;;;;;;6276316;28;20027;-63
2023/07/30 19:56:40;;;;;;;;;;;;;;;;;;6278002;28;19939;-62
2023/07/30 19:59:41;;;;;;;;;;;;;;;;;;6276823;28;19936;-64
2023/07/30 20:02:41;;;;;;;;;;;;;;;;;;6278835;28;19947;-64
2023/07/30 20:05:42;;;;;;;;;;;;;;;;;;6277592;28;19989;-61
2023/07/30 20:08:44;;;;;;;;;;;;;;;;;;6274213;28;19928;-61
2023/07/30 20:11:45;;;;;;;;;;;;;;;;;;6270834;28;19928;-64
2023/07/30 20:14:45;;;;;;;;;;;;;;;;;;6272997;28;20743;-61
2023/07/30 20:17:46;;;;;;;;;;;;;;;;;;6272837;28;19981;-63
2023/07/30 20:20:47;;;;;;;;;;;;;;;;;;6270867;28;19932;-63
2023/07/30 20:23:48;;;;;;;;;;;;;;;;;;6270862;28;20744;-63
2023/07/30 20:26:48;;;;;;;;;;;;;;;;;;6273694;28;20206;-63
2023/07/30 20:29:49;;;;;;;;;;;;;;;;;;6273108;28;20334;-60
2023/07/30 20:32:49;;;;;;;;;;;;;;;;;;6270738;28;19998;-62
2023/07/30 20:35:50;;;;;;;;;;;;;;;;;;6272211;28;19936;-60